sensor_id;sensor_type;location;lat;lon;timestamp;pressure;altitude;pressure_sealevel;temperature;humidity
31337;BME280;22846;42.654;23.314;2022-09-29T00:00:38;93642.13;;;26.11;54.38
31337;BME280;22846;42.654;23.314;2022-09-29T00:03:03;93650.34;;;26.11;54.12
31337;BME280;22846;42.654;23.314;2022-09-29T00:05:29;93662.03;;;26.12;54.63
31337;BME280;22846;42.654;23.314;2022-09-29T00:07:55;93646.81;;;26.11;54.75
31337;BME280;22846;42.654;23.314;2022-09-29T00:10:20;93635.31;;;26.07;54.45
31337;BME280;22846;42.654;23.314;2022-09-29T00:12:46;93636.06;;;26.07;55.21
31337;BME280;22846;42.654;23.314;2022-09-29T00:15:12;93640.59;;;26.10;55.09
31337;BME280;22846;42.654;23.314;2022-09-29T00:17:38;93642.56;;;26.10;54.53
31337;BME280;22846;42.654;23.314;2022-09-29T00:20:04;93645.31;;;26.10;55.00
31337;BME280;22846;42.654;23.314;2022-09-29T00:22:29;93641.84;;;26.09;55.24
31337;BME280;22846;42.654;23.314;2022-09-29T00:24:55;93640.31;;;26.08;54.95
31337;BME280;22846;42.654;23.314;2022-09-29T00:27:20;93639.84;;;26.10;55.03
31337;BME280;22846;42.654;23.314;2022-09-29T00:29:46;93637.56;;;26.08;54.76
31337;BME280;22846;42.654;23.314;2022-09-29T00:32:11;93623.88;;;26.08;54.53
31337;BME280;22846;42.654;23.314;2022-09-29T00:34:37;93640.31;;;26.08;55.10
31337;BME280;22846;42.654;23.314;2022-09-29T00:37:03;93628.03;;;26.04;54.93
31337;BME280;22846;42.654;23.314;2022-09-29T00:39:28;93614.94;;;26.08;54.62
31337;BME280;22846;42.654;23.314;2022-09-29T00:41:54;93643.06;;;26.08;55.04
31337;BME280;22846;42.654;23.314;2022-09-29T00:47:02;93629.06;;;26.06;54.80
31337;BME280;22846;42.654;23.314;2022-09-29T00:49:46;93629.84;;;26.07;55.12
31337;BME280;22846;42.654;23.314;2022-09-29T00:54:52;93637.28;;;26.06;54.92
31337;BME280;22846;42.654;23.314;2022-09-29T00:57:25;93638.06;;;26.07;55.11
31337;BME280;22846;42.654;23.314;2022-09-29T01:00:02;93638.50;;;26.05;55.03
31337;BME280;22846;42.654;23.314;2022-09-29T01:02:29;93642.03;;;26.06;54.72
31337;BME280;22846;42.654;23.314;2022-09-29T01:04:58;93646.72;;;26.05;54.76
31337;BME280;22846;42.654;23.314;2022-09-29T01:07:25;93643.25;;;26.05;54.98
31337;BME280;22846;42.654;23.314;2022-09-29T01:09:53;93634.28;;;26.04;55.07
31337;BME280;22846;42.654;23.314;2022-09-29T01:12:19;93629.25;;;26.03;55.01
31337;BME280;22846;42.654;23.314;2022-09-29T01:14:46;93634.00;;;26.02;55.01
31337;BME280;22846;42.654;23.314;2022-09-29T01:17:12;93630.78;;;26.04;54.73
31337;BME280;22846;42.654;23.314;2022-09-29T01:24:51;93621.81;;;26.03;54.43
31337;BME280;22846;42.654;23.314;2022-09-29T01:29:53;93628.03;;;26.04;54.63
31337;BME280;22846;42.654;23.314;2022-09-29T01:40:13;93639.47;;;26.02;54.49
31337;BME280;22846;42.654;23.314;2022-09-29T01:42:51;93640.69;;;26.01;54.76
31337;BME280;22846;42.654;23.314;2022-09-29T01:45:27;93646.84;;;25.96;54.71
31337;BME280;22846;42.654;23.314;2022-09-29T01:47:56;93647.69;;;26.02;54.62
31337;BME280;22846;42.654;23.314;2022-09-29T01:50:32;93636.03;;;25.93;54.66
31337;BME280;22846;42.654;23.314;2022-09-29T01:53:06;93654.88;;;26.00;54.83
31337;BME280;22846;42.654;23.314;2022-09-29T01:55:37;93644.66;;;26.00;54.71
31337;BME280;22846;42.654;23.314;2022-09-29T01:58:08;93639.91;;;26.01;54.73
31337;BME280;22846;42.654;23.314;2022-09-29T02:00:41;93648.63;;;25.99;54.43
31337;BME280;22846;42.654;23.314;2022-09-29T02:03:14;93642.59;;;25.95;54.79
31337;BME280;22846;42.654;23.314;2022-09-29T02:06:01;93661.56;;;25.99;54.37
31337;BME280;22846;42.654;23.314;2022-09-29T02:11:08;93654.09;;;25.99;54.74
31337;BME280;22846;42.654;23.314;2022-09-29T02:13:40;93652.56;;;25.98;54.76
31337;BME280;22846;42.654;23.314;2022-09-29T02:16:15;93649.84;;;25.98;55.12
31337;BME280;22846;42.654;23.314;2022-09-29T02:18:47;93649.84;;;25.98;54.41
31337;BME280;22846;42.654;23.314;2022-09-29T02:21:16;93650.59;;;25.99;54.68
31337;BME280;22846;42.654;23.314;2022-09-29T02:23:41;93645.13;;;25.99;54.62
31337;BME280;22846;42.654;23.314;2022-09-29T02:26:08;93660.78;;;25.98;54.37
31337;BME280;22846;42.654;23.314;2022-09-29T02:28:35;93673.72;;;25.98;54.57
31337;BME280;22846;42.654;23.314;2022-09-29T02:31:01;93669.00;;;25.98;54.83
31337;BME280;22846;42.654;23.314;2022-09-29T02:33:26;93656.09;;;25.99;54.72
31337;BME280;22846;42.654;23.314;2022-09-29T02:36:07;93673.72;;;25.98;54.73
31337;BME280;22846;42.654;23.314;2022-09-29T02:38:52;93669.00;;;25.98;54.31
31337;BME280;22846;42.654;23.314;2022-09-29T02:46:45;93659.00;;;25.95;54.66
31337;BME280;22846;42.654;23.314;2022-09-29T02:59:31;93664.47;;;25.95;54.43
31337;BME280;22846;42.654;23.314;2022-09-29T03:01:58;93665.22;;;25.96;54.56
31337;BME280;22846;42.654;23.314;2022-09-29T03:04:25;93649.56;;;25.96;54.83
31337;BME280;22846;42.654;23.314;2022-09-29T03:06:52;93628.13;;;25.95;54.79
31337;BME280;22846;42.654;23.314;2022-09-29T03:09:17;93604.16;;;25.90;54.67
31337;BME280;22846;42.654;23.314;2022-09-29T03:11:43;93614.16;;;25.93;54.70
31337;BME280;22846;42.654;23.314;2022-09-29T03:14:09;93634.81;;;25.94;54.59
31337;BME280;22846;42.654;23.314;2022-09-29T03:16:35;93616.50;;;25.85;54.45
31337;BME280;22846;42.654;23.314;2022-09-29T03:19:02;93632.84;;;25.94;54.76
31337;BME280;22846;42.654;23.314;2022-09-29T03:21:28;93648.06;;;25.95;54.74
31337;BME280;22846;42.654;23.314;2022-09-29T03:23:54;93640.31;;;25.94;54.47
31337;BME280;22846;42.654;23.314;2022-09-29T03:26:19;93641.06;;;25.94;54.32
31337;BME280;22846;42.654;23.314;2022-09-29T03:28:45;93652.75;;;25.95;54.68
31337;BME280;22846;42.654;23.314;2022-09-29T03:31:10;93656.72;;;25.94;54.47
31337;BME280;22846;42.654;23.314;2022-09-29T03:33:37;93638.34;;;25.94;54.70
31337;BME280;22846;42.654;23.314;2022-09-29T03:36:04;93642.00;;;25.91;54.88
31337;BME280;22846;42.654;23.314;2022-09-29T03:38:31;93647.00;;;25.93;54.82
31337;BME280;22846;42.654;23.314;2022-09-29T03:40:57;93656.72;;;25.94;54.35
31337;BME280;22846;42.654;23.314;2022-09-29T03:43:22;93662.38;;;25.90;54.54
31337;BME280;22846;42.654;23.314;2022-09-29T03:45:49;93683.13;;;25.82;54.21
31337;BME280;22846;42.654;23.314;2022-09-29T03:48:15;93686.81;;;25.79;54.07
31337;BME280;22846;42.654;23.314;2022-09-29T03:50:41;93695.81;;;25.94;54.22
31337;BME280;22846;42.654;23.314;2022-09-29T03:53:06;93671.94;;;25.95;53.26
31337;BME280;22846;42.654;23.314;2022-09-29T03:55:32;93667.97;;;25.96;53.06
31337;BME280;22846;42.654;23.314;2022-09-29T03:57:57;93671.75;;;25.98;53.15
31337;BME280;22846;42.654;23.314;2022-09-29T04:00:22;93662.31;;;25.99;53.00
31337;BME280;22846;42.654;23.314;2022-09-29T04:02:48;93663.53;;;25.98;54.04
31337;BME280;22846;42.654;23.314;2022-09-29T04:05:13;93676.75;;;26.00;53.96
31337;BME280;22846;42.654;23.314;2022-09-29T04:07:39;93665.91;;;25.91;52.93
31337;BME280;22846;42.654;23.314;2022-09-29T04:10:04;93675.06;;;26.02;53.86
31337;BME280;22846;42.654;23.314;2022-09-29T04:12:30;93680.06;;;26.04;53.03
31337;BME280;22846;42.654;23.314;2022-09-29T04:14:55;93682.78;;;26.04;52.75
31337;BME280;22846;42.654;23.314;2022-09-29T04:17:21;93662.88;;;26.03;53.55
31337;BME280;22846;42.654;23.314;2022-09-29T04:19:46;93658.44;;;26.06;53.08
31337;BME280;22846;42.654;23.314;2022-09-29T04:22:14;93670.91;;;26.07;53.61
31337;BME280;22846;42.654;23.314;2022-09-29T04:24:42;93675.91;;;26.08;53.79
31337;BME280;22846;42.654;23.314;2022-09-29T04:27:08;93665.72;;;26.09;52.97
31337;BME280;22846;42.654;23.314;2022-09-29T04:29:33;93665.69;;;25.80;45.03
31337;BME280;22846;42.654;23.314;2022-09-29T04:31:59;93673.06;;;25.65;49.93
31337;BME280;22846;42.654;23.314;2022-09-29T04:34:24;93683.00;;;25.54;47.17
31337;BME280;22846;42.654;23.314;2022-09-29T04:36:50;93666.03;;;25.50;50.30
31337;BME280;22846;42.654;23.314;2022-09-29T04:39:15;93656.63;;;25.51;50.75
31337;BME280;22846;42.654;23.314;2022-09-29T04:41:40;93667.84;;;25.53;51.26
31337;BME280;22846;42.654;23.314;2022-09-29T04:44:06;93669.19;;;25.57;51.61
31337;BME280;22846;42.654;23.314;2022-09-29T04:46:31;93663.81;;;25.62;51.33
31337;BME280;22846;42.654;23.314;2022-09-29T04:48:57;93658.16;;;25.66;52.16
31337;BME280;22846;42.654;23.314;2022-09-29T04:51:22;93645.72;;;25.65;52.06
31337;BME280;22846;42.654;23.314;2022-09-29T04:53:48;93660.06;;;25.74;51.59
31337;BME280;22846;42.654;23.314;2022-09-29T04:56:13;93663.88;;;25.77;51.94
31337;BME280;22846;42.654;23.314;2022-09-29T04:58:39;93663.69;;;25.80;52.11
31337;BME280;22846;42.654;23.314;2022-09-29T05:01:09;93662.75;;;25.83;51.20
31337;BME280;22846;42.654;23.314;2022-09-29T05:03:36;93658.63;;;25.88;52.27
31337;BME280;22846;42.654;23.314;2022-09-29T05:06:02;93658.13;;;25.89;50.96
31337;BME280;22846;42.654;23.314;2022-09-29T05:08:28;93666.16;;;25.93;51.98
31337;BME280;22846;42.654;23.314;2022-09-29T05:10:53;93655.50;;;25.95;52.04
31337;BME280;22846;42.654;23.314;2022-09-29T05:13:18;93664.75;;;25.97;52.33
31337;BME280;22846;42.654;23.314;2022-09-29T05:15:44;93653.34;;;25.99;51.64
31337;BME280;22846;42.654;23.314;2022-09-29T05:18:09;93664.09;;;26.02;51.33
31337;BME280;22846;42.654;23.314;2022-09-29T05:20:34;93673.34;;;26.05;51.73
31337;BME280;22846;42.654;23.314;2022-09-29T05:23:00;93671.66;;;26.07;51.41
31337;BME280;22846;42.654;23.314;2022-09-29T05:25:26;93661.00;;;26.09;51.49
31337;BME280;22846;42.654;23.314;2022-09-29T05:27:52;93657.03;;;26.10;51.55
31337;BME280;22846;42.654;23.314;2022-09-29T05:30:17;93659.59;;;26.14;51.28
31337;BME280;22846;42.654;23.314;2022-09-29T05:32:43;93659.09;;;26.15;51.44
31337;BME280;22846;42.654;23.314;2022-09-29T05:35:08;93663.66;;;26.18;51.54
31337;BME280;22846;42.654;23.314;2022-09-29T05:37:34;93660.44;;;26.20;51.79
31337;BME280;22846;42.654;23.314;2022-09-29T05:39:59;93668.47;;;26.23;51.66
31337;BME280;22846;42.654;23.314;2022-09-29T05:42:25;93682.44;;;26.25;51.95
31337;BME280;22846;42.654;23.314;2022-09-29T05:44:52;93682.72;;;26.27;51.84
31337;BME280;22846;42.654;23.314;2022-09-29T05:47:17;93700.19;;;26.30;51.61
31337;BME280;22846;42.654;23.314;2022-09-29T05:49:43;93691.50;;;26.31;51.67
31337;BME280;22846;42.654;23.314;2022-09-29T05:52:08;93696.03;;;26.34;51.67
31337;BME280;22846;42.654;23.314;2022-09-29T05:54:34;93697.09;;;26.37;51.42
31337;BME280;22846;42.654;23.314;2022-09-29T05:56:59;93696.63;;;26.38;51.52
31337;BME280;22846;42.654;23.314;2022-09-29T05:59:24;93689.97;;;26.39;51.35
31337;BME280;22846;42.654;23.314;2022-09-29T06:01:50;93689.00;;;26.42;51.52
31337;BME280;22846;42.654;23.314;2022-09-29T06:04:15;93701.19;;;26.41;51.46
31337;BME280;22846;42.654;23.314;2022-09-29T06:06:42;93706.19;;;26.43;51.55
31337;BME280;22846;42.654;23.314;2022-09-29T06:09:07;93708.47;;;26.44;51.26
31337;BME280;22846;42.654;23.314;2022-09-29T06:11:33;93707.88;;;26.40;51.37
31337;BME280;22846;42.654;23.314;2022-09-29T06:14:00;93711.94;;;26.45;51.42
31337;BME280;22846;42.654;23.314;2022-09-29T06:16:28;93716.19;;;26.46;51.54
31337;BME280;22846;42.654;23.314;2022-09-29T06:18:54;93704.00;;;26.47;51.49
31337;BME280;22846;42.654;23.314;2022-09-29T06:21:22;93697.31;;;26.48;51.38
31337;BME280;22846;42.654;23.314;2022-09-29T06:23:49;93709.03;;;26.48;51.45
31337;BME280;22846;42.654;23.314;2022-09-29T06:26:17;93711.31;;;26.49;51.32
31337;BME280;22846;42.654;23.314;2022-09-29T06:28:42;93710.06;;;26.50;51.17
31337;BME280;22846;42.654;23.314;2022-09-29T06:31:13;93713.06;;;26.52;51.24
31337;BME280;22846;42.654;23.314;2022-09-29T06:33:40;93707.78;;;26.49;51.25
31337;BME280;22846;42.654;23.314;2022-09-29T06:36:18;93718.41;;;26.56;51.54
31337;BME280;22846;42.654;23.314;2022-09-29T06:39:04;93718.94;;;26.60;51.17
31337;BME280;22846;42.654;23.314;2022-09-29T06:41:29;93716.97;;;26.60;50.98
31337;BME280;22846;42.654;23.314;2022-09-29T06:43:55;93718.75;;;26.63;51.19
31337;BME280;22846;42.654;23.314;2022-09-29T06:46:20;93718.00;;;26.63;51.16
31337;BME280;22846;42.654;23.314;2022-09-29T06:48:47;93714.03;;;26.64;50.99
31337;BME280;22846;42.654;23.314;2022-09-29T06:51:12;93718.75;;;26.63;51.17
31337;BME280;22846;42.654;23.314;2022-09-29T06:53:39;93715.06;;;26.66;51.11
31337;BME280;22846;42.654;23.314;2022-09-29T06:56:04;93726.03;;;26.66;50.99
31337;BME280;22846;42.654;23.314;2022-09-29T06:58:30;93729.53;;;26.67;51.16
31337;BME280;22846;42.654;23.314;2022-09-29T07:00:59;93728.00;;;26.66;50.92
31337;BME280;22846;42.654;23.314;2022-09-29T07:03:26;93744.75;;;26.68;50.92
31337;BME280;22846;42.654;23.314;2022-09-29T07:05:52;93746.75;;;26.67;50.84
31337;BME280;22846;42.654;23.314;2022-09-29T07:08:17;93740.50;;;26.67;50.92
31337;BME280;22846;42.654;23.314;2022-09-29T07:10:45;93740.69;;;26.63;50.95
31337;BME280;22846;42.654;23.314;2022-09-29T07:13:10;93748.25;;;26.68;50.70
31337;BME280;22846;42.654;23.314;2022-09-29T07:15:35;93732.06;;;26.70;50.70
31337;BME280;22846;42.654;23.314;2022-09-29T07:18:02;93737.28;;;26.68;50.60
31337;BME280;22846;42.654;23.314;2022-09-29T07:20:29;93735.09;;;26.72;50.88
31337;BME280;22846;42.654;23.314;2022-09-29T07:22:55;93733.13;;;26.73;50.79
31337;BME280;22846;42.654;23.314;2022-09-29T07:25:21;93722.34;;;26.69;50.63
31337;BME280;22846;42.654;23.314;2022-09-29T07:27:47;93727.91;;;26.75;50.65
31337;BME280;22846;42.654;23.314;2022-09-29T07:30:13;93732.66;;;26.74;50.70
31337;BME280;22846;42.654;23.314;2022-09-29T07:32:39;93727.47;;;26.76;50.71
31337;BME280;22846;42.654;23.314;2022-09-29T07:35:05;93725.47;;;26.77;50.93
31337;BME280;22846;42.654;23.314;2022-09-29T07:37:31;93725.94;;;26.75;50.60
31337;BME280;22846;42.654;23.314;2022-09-29T07:39:57;93732.47;;;26.78;50.64
31337;BME280;22846;42.654;23.314;2022-09-29T07:42:22;93734.47;;;26.77;50.63
31337;BME280;22846;42.654;23.314;2022-09-29T07:44:48;93738.72;;;26.78;50.59
31337;BME280;22846;42.654;23.314;2022-09-29T07:47:13;93736.72;;;26.79;50.61
31337;BME280;22846;42.654;23.314;2022-09-29T07:49:42;93737.94;;;26.78;50.58
31337;BME280;22846;42.654;23.314;2022-09-29T07:52:07;93733.69;;;26.77;50.51
31337;BME280;22846;42.654;23.314;2022-09-29T07:54:33;93753.91;;;26.79;50.52
31337;BME280;22846;42.654;23.314;2022-09-29T07:56:59;93751.66;;;26.78;50.46
31337;BME280;22846;42.654;23.314;2022-09-29T07:59:26;93751.66;;;26.78;50.57
31337;BME280;22846;42.654;23.314;2022-09-29T08:01:52;93750.91;;;26.77;50.61
31337;BME280;22846;42.654;23.314;2022-09-29T08:04:18;93754.38;;;26.78;50.35
31337;BME280;22846;42.654;23.314;2022-09-29T08:06:44;93768.56;;;26.76;50.67
31337;BME280;22846;42.654;23.314;2022-09-29T08:09:11;93762.22;;;26.70;50.36
31337;BME280;22846;42.654;23.314;2022-09-29T08:11:38;93771.31;;;26.76;50.41
31337;BME280;22846;42.654;23.314;2022-09-29T08:14:04;93777.25;;;26.75;50.55
31337;BME280;22846;42.654;23.314;2022-09-29T08:16:29;93776.03;;;26.76;50.56
31337;BME280;22846;42.654;23.314;2022-09-29T08:18:55;93776.22;;;26.72;50.66
31337;BME280;22846;42.654;23.314;2022-09-29T08:21:21;93782.00;;;26.74;50.52
31337;BME280;22846;42.654;23.314;2022-09-29T08:23:47;93784.00;;;26.74;50.36
31337;BME280;22846;42.654;23.314;2022-09-29T08:26:15;93776.50;;;26.74;50.56
31337;BME280;22846;42.654;23.314;2022-09-29T08:28:41;93764.81;;;26.74;50.58
31337;BME280;22846;42.654;23.314;2022-09-29T08:31:26;93764.50;;;26.72;50.35
31337;BME280;22846;42.654;23.314;2022-09-29T08:33:52;93775.00;;;26.73;50.73
31337;BME280;22846;42.654;23.314;2022-09-29T08:36:18;93765.81;;;26.62;50.69
31337;BME280;22846;42.654;23.314;2022-09-29T08:38:46;93790.69;;;26.73;50.53
31337;BME280;22846;42.654;23.314;2022-09-29T08:41:32;93782.94;;;26.71;50.37
31337;BME280;22846;42.654;23.314;2022-09-29T08:46:52;93784.94;;;26.71;50.52
31337;BME280;22846;42.654;23.314;2022-09-29T08:49:34;93769.69;;;26.70;50.36
31337;BME280;22846;42.654;23.314;2022-09-29T08:52:16;93758.00;;;26.69;50.33
31337;BME280;22846;42.654;23.314;2022-09-29T08:54:45;93765.44;;;26.69;50.30
31337;BME280;22846;42.654;23.314;2022-09-29T08:57:16;93759.66;;;26.67;50.32
31337;BME280;22846;42.654;23.314;2022-09-29T08:59:54;93767.44;;;26.68;50.38
31337;BME280;22846;42.654;23.314;2022-09-29T09:08:14;93773.38;;;26.67;50.37
31337;BME280;22846;42.654;23.314;2022-09-29T09:10:45;93776.13;;;26.67;50.48
31337;BME280;22846;42.654;23.314;2022-09-29T09:16:10;93773.84;;;26.65;50.12
31337;BME280;22846;42.654;23.314;2022-09-29T09:18:55;93769.59;;;26.64;50.62
31337;BME280;22846;42.654;23.314;2022-09-29T09:21:45;93768.84;;;26.64;50.44
31337;BME280;22846;42.654;23.314;2022-09-29T09:24:16;93777.06;;;26.64;50.35
31337;BME280;22846;42.654;23.314;2022-09-29T09:26:46;93780.56;;;26.64;50.47
31337;BME280;22846;42.654;23.314;2022-09-29T09:31:42;93777.53;;;26.62;50.50
31337;BME280;22846;42.654;23.314;2022-09-29T09:34:22;93764.03;;;26.59;50.50
31337;BME280;22846;42.654;23.314;2022-09-29T09:36:55;93765.34;;;26.63;50.50
31337;BME280;22846;42.654;23.314;2022-09-29T09:39:34;93761.09;;;26.62;50.45
31337;BME280;22846;42.654;23.314;2022-09-29T09:42:05;93756.38;;;26.63;50.37
31337;BME280;22846;42.654;23.314;2022-09-29T09:44:37;93757.13;;;26.63;50.31
31337;BME280;22846;42.654;23.314;2022-09-29T09:47:24;93759.13;;;26.63;50.54
31337;BME280;22846;42.654;23.314;2022-09-29T09:49:59;93766.56;;;26.62;50.35
31337;BME280;22846;42.654;23.314;2022-09-29T09:52:42;93765.34;;;26.63;50.40
31337;BME280;22846;42.654;23.314;2022-09-29T09:55:15;93761.56;;;26.61;50.49
31337;BME280;22846;42.654;23.314;2022-09-29T10:00:37;93766.56;;;26.62;50.23
31337;BME280;22846;42.654;23.314;2022-09-29T10:03:04;93771.41;;;26.67;50.23
31337;BME280;22846;42.654;23.314;2022-09-29T10:05:46;93759.88;;;26.63;50.34
31337;BME280;22846;42.654;23.314;2022-09-29T10:08:37;93753.06;;;26.59;50.50
31337;BME280;22846;42.654;23.314;2022-09-29T10:11:26;93760.34;;;26.62;50.53
31337;BME280;22846;42.654;23.314;2022-09-29T10:14:00;93753.34;;;26.61;50.51
31337;BME280;22846;42.654;23.314;2022-09-29T10:16:42;93764.31;;;26.61;50.23
31337;BME280;22846;42.654;23.314;2022-09-29T10:19:10;93749.38;;;26.62;50.26
31337;BME280;22846;42.654;23.314;2022-09-29T10:24:02;93760.34;;;26.62;50.00
31337;BME280;22846;42.654;23.314;2022-09-29T10:29:01;93766.75;;;26.59;50.25
31337;BME280;22846;42.654;23.314;2022-09-29T10:31:31;93772.06;;;26.62;50.33
31337;BME280;22846;42.654;23.314;2022-09-29T10:36:25;93772.81;;;26.63;50.18
31337;BME280;22846;42.654;23.314;2022-09-29T10:38:52;93776.31;;;26.63;50.27
31337;BME280;22846;42.654;23.314;2022-09-29T10:41:18;93778.75;;;26.61;50.01
31337;BME280;22846;42.654;23.314;2022-09-29T10:43:46;93770.53;;;26.61;50.20
31337;BME280;22846;42.654;23.314;2022-09-29T10:49:22;93768.09;;;26.63;50.25
31337;BME280;22846;42.654;23.314;2022-09-29T10:51:55;93766.13;;;26.64;50.38
31337;BME280;22846;42.654;23.314;2022-09-29T10:54:24;93760.91;;;26.66;50.16
31337;BME280;22846;42.654;23.314;2022-09-29T10:56:51;93748.72;;;26.67;50.00
31337;BME280;22846;42.654;23.314;2022-09-29T10:59:17;93747.47;;;26.68;50.20
31337;BME280;22846;42.654;23.314;2022-09-29T11:01:49;93750.50;;;26.70;50.03
31337;BME280;22846;42.654;23.314;2022-09-29T11:04:22;93736.31;;;26.71;49.99
31337;BME280;22846;42.654;23.314;2022-09-29T11:06:49;93737.09;;;26.72;50.21
31337;BME280;22846;42.654;23.314;2022-09-29T11:12:00;93743.91;;;26.76;50.22
31337;BME280;22846;42.654;23.314;2022-09-29T11:17:01;93738.72;;;26.78;50.24
31337;BME280;22846;42.654;23.314;2022-09-29T11:19:30;93742.94;;;26.79;49.97
31337;BME280;22846;42.654;23.314;2022-09-29T11:22:24;93737.00;;;26.81;50.18
31337;BME280;22846;42.654;23.314;2022-09-29T11:25:10;93734.53;;;26.83;50.00
31337;BME280;22846;42.654;23.314;2022-09-29T11:30:06;93729.31;;;26.85;49.95
31337;BME280;22846;42.654;23.314;2022-09-29T11:35:43;93729.63;;;26.87;50.10
31337;BME280;22846;42.654;23.314;2022-09-29T11:38:34;93718.66;;;26.87;49.75
31337;BME280;22846;42.654;23.314;2022-09-29T11:44:32;93727.44;;;26.91;49.62
31337;BME280;22846;42.654;23.314;2022-09-29T11:47:18;93733.09;;;26.87;49.41
31337;BME280;22846;42.654;23.314;2022-09-29T11:54:01;93737.44;;;26.94;49.56
31337;BME280;22846;42.654;23.314;2022-09-29T11:56:23;93729.22;;;26.94;49.45
31337;BME280;22846;42.654;23.314;2022-09-29T12:10:38;93715.50;;;26.94;49.38
31337;BME280;22846;42.654;23.314;2022-09-29T12:16:10;93731.97;;;26.94;49.42
31337;BME280;22846;42.654;23.314;2022-09-29T12:18:58;93729.03;;;26.97;49.12
31337;BME280;22846;42.654;23.314;2022-09-29T12:21:30;93725.06;;;26.98;49.34
31337;BME280;22846;42.654;23.314;2022-09-29T12:23:57;93722.59;;;27.00;49.15
31337;BME280;22846;42.654;23.314;2022-09-29T12:26:25;93726.41;;;27.03;48.92
31337;BME280;22846;42.654;23.314;2022-09-29T12:29:01;93733.41;;;27.04;49.36
31337;BME280;22846;42.654;23.314;2022-09-29T12:31:40;93742.19;;;27.08;49.09
31337;BME280;22846;42.654;23.314;2022-09-29T12:34:17;93741.44;;;27.07;49.02
31337;BME280;22846;42.654;23.314;2022-09-29T12:36:46;93737.25;;;27.12;48.87
31337;BME280;22846;42.654;23.314;2022-09-29T12:39:42;93740.78;;;27.12;48.91
31337;BME280;22846;42.654;23.314;2022-09-29T12:42:35;93738.78;;;27.13;48.87
31337;BME280;22846;42.654;23.314;2022-09-29T12:45:22;93740.56;;;27.16;48.97
31337;BME280;22846;42.654;23.314;2022-09-29T12:50:29;93736.88;;;27.19;48.64
31337;BME280;22846;42.654;23.314;2022-09-29T12:53:03;93733.19;;;27.22;48.82
31337;BME280;22846;42.654;23.314;2022-09-29T12:56:13;93717.66;;;27.19;48.73
31337;BME280;22846;42.654;23.314;2022-09-29T13:09:29;93733.47;;;27.24;48.71
31337;BME280;22846;42.654;23.314;2022-09-29T13:28:37;93743.88;;;27.20;48.76
31337;BME280;22846;42.654;23.314;2022-09-29T13:31:07;93743.56;;;27.18;48.54
31337;BME280;22846;42.654;23.314;2022-09-29T13:33:33;93737.06;;;27.15;48.41
31337;BME280;22846;42.654;23.314;2022-09-29T13:36:00;93744.84;;;27.17;48.73
31337;BME280;22846;42.654;23.314;2022-09-29T13:38:28;93748.81;;;27.16;48.52
31337;BME280;22846;42.654;23.314;2022-09-29T13:41:15;93740.28;;;27.14;48.68
31337;BME280;22846;42.654;23.314;2022-09-29T13:46:39;93741.03;;;27.14;48.54
31337;BME280;22846;42.654;23.314;2022-09-29T13:51:41;93756.47;;;27.12;48.85
31337;BME280;22846;42.654;23.314;2022-09-29T13:54:32;93743.69;;;27.09;48.58
31337;BME280;22846;42.654;23.314;2022-09-29T13:59:32;93758.66;;;27.08;48.86
31337;BME280;22846;42.654;23.314;2022-09-29T14:02:00;93756.38;;;27.06;48.67
31337;BME280;22846;42.654;23.314;2022-09-29T14:04:43;93754.59;;;27.03;48.80
31337;BME280;22846;42.654;23.314;2022-09-29T14:07:12;93764.78;;;27.03;48.70
31337;BME280;22846;42.654;23.314;2022-09-29T14:09:43;93756.28;;;27.01;48.71
31337;BME280;22846;42.654;23.314;2022-09-29T14:12:18;93763.72;;;27.00;48.82
31337;BME280;22846;42.654;23.314;2022-09-29T14:14:45;93763.56;;;27.04;48.59
31337;BME280;22846;42.654;23.314;2022-09-29T14:17:22;93773.19;;;26.99;48.79
31337;BME280;22846;42.654;23.314;2022-09-29T14:20:06;93769.41;;;26.97;48.89
31337;BME280;22846;42.654;23.314;2022-09-29T14:33:08;93827.84;;;26.88;48.80
31337;BME280;22846;42.654;23.314;2022-09-29T14:36:12;93829.34;;;26.89;48.68
31337;BME280;22846;42.654;23.314;2022-09-29T14:38:44;93856.97;;;26.86;48.97
31337;BME280;22846;42.654;23.314;2022-09-29T14:44:06;93861.59;;;26.80;48.90
31337;BME280;22846;42.654;23.314;2022-09-29T14:47:29;93863.38;;;26.83;48.77
31337;BME280;22846;42.654;23.314;2022-09-29T14:50:07;93859.41;;;26.84;48.74
31337;BME280;22846;42.654;23.314;2022-09-29T14:56:10;93863.56;;;26.79;48.77
31337;BME280;22846;42.654;23.314;2022-09-29T15:01:30;93851.09;;;26.78;48.80
31337;BME280;22846;42.654;23.314;2022-09-29T15:03:57;93842.88;;;26.78;48.77
31337;BME280;22846;42.654;23.314;2022-09-29T15:06:29;93842.09;;;26.78;48.68
31337;BME280;22846;42.654;23.314;2022-09-29T15:09:11;93837.84;;;26.77;48.79
31337;BME280;22846;42.654;23.314;2022-09-29T15:11:47;93838.34;;;26.75;48.73
31337;BME280;22846;42.654;23.314;2022-09-29T15:14:27;93841.81;;;26.76;48.82
31337;BME280;22846;42.654;23.314;2022-09-29T15:27:33;93850.22;;;26.72;48.72
31337;BME280;22846;42.654;23.314;2022-09-29T15:29:59;93844.63;;;26.67;48.66
31337;BME280;22846;42.654;23.314;2022-09-29T15:32:27;93865.63;;;26.70;48.93
31337;BME280;22846;42.654;23.314;2022-09-29T15:35:01;93863.38;;;26.68;48.97
31337;BME280;22846;42.654;23.314;2022-09-29T15:40:16;93868.56;;;26.66;48.83
31337;BME280;22846;42.654;23.314;2022-09-29T15:42:41;93868.09;;;26.68;48.76
31337;BME280;22846;42.654;23.314;2022-09-29T15:45:22;93861.09;;;26.67;48.72
31337;BME280;22846;42.654;23.314;2022-09-29T15:47:57;93867.53;;;26.64;49.02
31337;BME280;22846;42.654;23.314;2022-09-29T15:50:25;93870.53;;;26.66;48.85
31337;BME280;22846;42.654;23.314;2022-09-29T15:52:51;93870.25;;;26.64;48.88
31337;BME280;22846;42.654;23.314;2022-09-29T15:55:19;93867.22;;;26.62;48.86